Tiempo atmosférico en la estación meteorológica de Soria, Soria (1082 m.)



Fecha
DESCASC
Temp. máxima en grados centígrados (hora)
DESCASC
Temp. mínima en grados centígrados (hora)
DESCASC
Temp. media en grados centígrados
DESCASC
Racha de viento máxima en m/sg (hora)
DESCASC
Velocidad máxima media en intervalos de 10 minutos(hora)
DESCASC
Precipitaciones diarias en mm
DESCASC
Precipitaciones de 00:00 a 06:00 en mm
DESCASC
Precipitaciones de 06:00 a 12:00 en mm
DESCASC
Precipitaciones de 12:00 a 18:00 en mm
DESCASC
Precipitaciones de 18:00 a 24:00 en mm
DESCASC
14-02-2019 16.4 (16:50) -2 (08:20) 7.2 5.28 (14:30) 3.33 (18:20) 0 0 0 0 0
13-02-2019 16.3 (16:20) -3 (07:20) 6.6 5.28 (16:30) 2.22 (13:50) 0 0 0 0 0
12-02-2019 13.7 (16:50) -2.8 (08:10) 5.4 4.72 (14:10) 2.5 (14:20) 0 0 0 0 0
11-02-2019 9.2 (15:10) -0.8 (07:50) 4.2 10.28 (13:00) 5.83 (13:00) 0 0 0 0 0
10-02-2019 9 (15:50) 3.2 (00:00) 6.1 13.89 (11:50) 6.94 (11:50) 0.4 0 0 0 0.4
09-02-2019 12.5 (15:50) 3.9 (00:00) 8.2 9.17 (03:00) 5 (03:10) 0 0 0 0 0
08-02-2019 14.3 (16:30) -4.6 (-00:0) 4.9 9.44 (15:50) 5 (16:00) 0 0 0 0 0
07-02-2019 13.5 (15:30) 1.1 (00:00) 7.3 8.89 (14:00) 5.56 (14:10) 0 0 0 0 0
06-02-2019 16.6 (16:00) -1.8 (08:30) 7.4 7.22 (18:00) 3.89 (17:40) 0 0 0 0 0
05-02-2019 16 (15:30) -1.2 (08:00) 7.4 5 (17:10) 2.78 (17:10) 0 0 0 0 0
04-02-2019 10.1 (14:50) -4.6 (-00:0) 2.8 5.83 (16:10) 3.89 (16:10) 0 0 0 0 0
03-02-2019 4.3 (16:00) -3 (-00:0) 0.7 14.44 (16:30) 6.11 (11:30) 1.2 1 0.2 0 0
02-02-2019 3.4 (13:00) -1.8 (-00:0) 0.8 13.61 (11:40) 6.39 (08:00) 1 0.8 0.2 0 0
01-02-2019 7.1 (00:50) 0.4 (00:00) 3.7 15.28 (14:50) 8.06 (17:40) 14 11.8 1.8 0.4 0
31-01-2019 9.7 (15:10) 0.9 (00:00) 5.3 16.39 (20:20) 10.56 (20:50) 12.8 4 3.6 0.6 4.6
30-01-2019 5.8 (14:30) -0.6 (-00:0) 2.6 11.67 (16:10) 6.94 (14:20) 5 0 0 0 5
29-01-2019 5.4 (17:30) -0.8 (-00:0) 2.3 15.28 (15:20) 8.06 (15:10) 2.9 0 0 2.9 0
28-01-2019 8.8 (16:00) 0.1 (00:00) 4.5 17.78 (10:00) 8.06 (11:30) 0 0 0 0 0
27-01-2019 7.6 (13:00) 2 (00:00) 4.8 11.39 (13:50) 5.83 (12:00) 0 0 0 0 0
26-01-2019 14.4 (15:40) -2.6 (-00:0) 5.9 9.17 (21:10) 4.44 (19:20) 0 0 0 0 0
25-01-2019 11.9 (14:00) 1.9 (00:00) 6.9 12.22 (04:30) 4.72 (14:50) 0 0 0 0 0
24-01-2019 6.9 (15:10) 2.3 (00:00) 4.6 11.39 (15:10) 3.89 (22:00) 0.6 0.4 0.2 0 0
23-01-2019 8.4 (14:50) 1.4 (00:00) 4.9 13.89 (08:00) 6.94 (07:10) 1 0 0 0 1
22-01-2019 2.8 (12:50) -1.4 (-00:0) 0.7 11.94 (12:20) 6.39 (14:00) 0 0 0 0 0
21-01-2019 6.9 (14:50) -1 (-00:0) 3 8.33 (11:00) 3.89 (11:10) 0 0 0 0 0
20-01-2019 7.9 (14:00) 0.3 (00:00) 4.1 8.33 (16:40) 3.89 (06:50) 0.8 0.8 0 0 0
19-01-2019 3.9 (14:20) -0.4 (00:00) 1.8 8.33 (06:00) 4.17 (05:10) 7.8 0 0 1.4 6.4

Gráficas

Temp. máximas Temp. mínimas Temp. medias Precipitaciones Rachas de viento máximas Velocidades máximas media en intervalos de 10 minutos

Datos horarios

Fecha y hora oficial Temperatura (ºC) Velocidad del viento (km/h) Dirección del viento Racha (km/h) Dirección de racha Precipitación (mm) Presión (hPa) Tendencia (hPa) Humedad (%)
2019-02-17 23:00:00 2.9 2 Norte 8 Noroeste 0 896.7 0.4 55
2019-02-17 22:00:00 4.9 0 Calma 8 Sudeste 0 896.5 0.5 48
2019-02-17 21:00:00 6.4 6 Sur 17 Sur 0 896.5 0.8 44
2019-02-17 20:00:00 7.8 8 Sur 17 Sur 0 896.3 0.3 41
2019-02-17 19:00:00 10.9 5 Sudoeste 16 Sur 0 896 -0.5 29
2019-02-17 18:00:00 13.7 11 Sur 27 Sur 0 895.7 -1.7 24
2019-02-17 17:00:00 14.9 15 Sur 31 Sur 0 896 -2.1 20
2019-02-17 16:00:00 15.6 14 Sur 24 Sur 0 896.5 -2.7 20
2019-02-17 15:00:00 15.2 11 Sur 22 Sudeste 0 897.4 -2.4 22
2019-02-17 14:00:00 13.9 15 Sur 22 Sur 0 898.1 -2 21
2019-02-17 13:00:00 12.6 10 Sudeste 21 Sudeste 0 899.2 -1.4 26
2019-02-17 12:00:00 11.5 7 Sur 13 Sur 0 899.8 -0.9 25
2019-02-17 11:00:00 8.4 4 Nordeste 9 Este 0 900.1 -0.4 37
2019-02-17 10:00:00 3.1 6 Este 9 Este 0 900.6 0.1 55
2019-02-17 09:00:00 -2.7 0 Calma 7 Este 0 900.7 0.3 77
2019-02-17 08:00:00 -3.2 4 Este 7 Este 0 900.5 0.3 75
2019-02-17 07:00:00 -2.6 0 Calma 5 Noroeste 0 900.5 -0.2 74
2019-02-17 06:00:00 -2.1 3 Noroeste 5 Sudeste 0 900.4 -0.4 74
2019-02-17 05:00:00 -2 0 Calma 3 Norte 0 900.2 -0.9 80
2019-02-17 04:00:00 -1.5 0 Calma 6 Noroeste 0 900.7 -0.5 80
2019-02-17 03:00:00 -0.8 3 Norte 5 Noroeste 0 900.8 -0.5 78
2019-02-17 02:00:00 -0.1 0 Calma 5 Noroeste 0 901.1 -0.2 77
2019-02-17 01:00:00 1 3 Este 8 Este 0 901.2 0 75
2019-02-17 00:00:00 1.7 0 Calma 6 Norte 0 901.3 0.3 71
2019-02-16 23:00:00 3 3 Norte 5 Norte 0 901.3 0.5 66
2019-02-16 22:00:00 4.9 3 Noroeste 9 Sudeste 0 901.2 0.6 67
2019-02-16 21:00:00 6.4 5 Sudeste 17 Sudeste 0 901 0.9 59
2019-02-16 20:00:00 8.1 9 Este 16 Este 0 900.8 0.5 58
2019-02-16 19:00:00 10 6 Sudeste 20 Este 0 900.6 0 50
2019-02-16 18:00:00 14 9 Sur 23 Sur 0 900.1 -1.2 32
2019-02-16 17:00:00 15.2 13 Sur 25 Sudeste 0 900.3 -1.6 32
2019-02-16 16:00:00 15.4 14 Sudeste 24 Sudeste 0 900.6 -2.2 35
2019-02-16 15:00:00 15.1 13 Sur 22 Sur 0 901.3 -2.1 30
2019-02-16 14:00:00 14.6 11 Sudeste 25 Este 0 901.9 -1.5 35
2019-02-16 13:00:00 12.9 10 Sudeste 23 Sudeste 0 902.8 -0.5 47
2019-02-16 12:00:00 11.5 10 Sudeste 19 Sudeste 0 903.4 0.4 50
2019-02-16 11:00:00 8.7 4 Este 9 Este 0 903.4 0.7 59
2019-02-16 10:00:00 4.1 3 Nordeste 6 Este 0 903.3 0.9 68
2019-02-16 09:00:00 -1.2 0 Calma 6 Este 0 903 0.4 82
2019-02-16 08:00:00 -1.9 2 Noroeste 4 Este 0 902.7 0.2 78
2019-02-16 07:00:00 -1.7 4 Este 12 Nordeste 0 902.4 -0.3 76
2019-02-16 06:00:00 -1.5 2 Norte 5 Norte 0 902.6 -0.2 79
2019-02-16 05:00:00 -1.6 3 Sudeste 6 Este 0 902.5 -0.5 84
2019-02-16 04:00:00 -1.3 3 Este 5 Este 0 902.7 -0.3 82
2019-02-16 03:00:00 0.2 2 Sudeste 10 Nordeste 0 902.8 -0.1 79
2019-02-16 02:00:00 0.5 2 Norte 4 Norte 0 903 0.1 74
2019-02-16 01:00:00 1 3 Noroeste 5 Noroeste 0 903 0.4 77
2019-02-16 00:00:00 2.5 2 Nordeste 6 Este 0 902.9 0.3 66
2019-02-15 23:00:00 3.8 0 Calma 7 Nordeste 0 902.9 0.5 60
2019-02-15 22:00:00 4.9 0 Calma 5 Nordeste 0 902.6 0.4 62
2019-02-15 21:00:00 6.9 0 Calma 8 Este 0 902.6 1 57
2019-02-15 20:00:00 8.7 6 Este 9 Este 0 902.4 0.7 55
2019-02-15 19:00:00 11.6 4 Este 13 Sudeste 0 902.2 0.4 51
2019-02-15 18:00:00 15.7 5 Sudeste 14 Este 0 901.6 -0.7 33
2019-02-15 17:00:00 17.3 6 Sudeste 14 Sudeste 0 901.7 -1.1 29
2019-02-15 16:00:00 17.7 6 Sudeste 12 Sudeste 0 901.8 -1.8 26
2019-02-15 15:00:00 16.7 4 Sudeste 12 Sur 0 902.3 -2 29
2019-02-15 14:00:00 15.5 4 Sudoeste 12 Este 0 902.8 -1.4 35
2019-02-15 13:00:00 13.9 5 Este 11 Sur 0 903.6 -0.4 40
2019-02-15 12:00:00 11 3 Sudoeste 6 Sudoeste 0 904.3 0.4 50
2019-02-15 11:00:00 7.4 3 Nordeste 8 Este 0 904.2 0.7 55
2019-02-15 10:00:00 3.1 3 Este 8 Nordeste 0 904 0.5 71
2019-02-15 09:00:00 -1.9 0 Calma 4 Norte 0 903.9 0.5 85
2019-02-15 08:00:00 -2.1 2 Nordeste 5 Norte 0 903.5 0.1 82
2019-02-15 07:00:00 -2.5 2 Sudeste 7 Este 0 903.5 -0.1 82
2019-02-15 06:00:00 -1.9 0 Calma 5 Este 0 903.4 -0.7 78
2019-02-15 05:00:00 -1.1 3 Sudeste 5 Este 0 903.4 -0.7 76
2019-02-15 04:00:00 -0.2 2 Nordeste 6 Este 0 903.6 -0.5 72
2019-02-15 03:00:00 0.4 3 Este 11 Nordeste 0 904.1 -0.1 70
2019-02-15 02:00:00 0 2 Este 6 Nordeste 0 904.1 -0.1 72
2019-02-15 01:00:00 1.1 0 Calma 3 Norte 0 904.1 -0.3 68
2019-02-15 00:00:00 1.7 0 Calma 6 Sudeste 0 904.2 0.1 65
2019-02-14 23:00:00 2.9 3 Este 4 Este 0 904.2 0.2 62
2019-02-14 22:00:00 4.4 2 Norte 6 Norte 0 904.4 0.8 59
2019-02-14 21:00:00 6.3 3 Noroeste 5 Sudeste 0 904.1 0.7 54
2019-02-14 20:00:00 7.8 3 Sudeste 11 Sudeste 0 904 0.5 47
2019-02-14 19:00:00 10.4 6 Sudeste 19 Sur 0 903.6 -0.2 38
2019-02-14 18:00:00 14.4 9 Sur 18 Sur 0 903.4 -0.9 25
2019-02-14 17:00:00 16.1 9 Sur 18 Sudeste 0 903.5 -1.5 22
2019-02-14 16:00:00 15.8 7 Sudeste 15 Sur 0 903.8 -2.1 21
2019-02-14 15:00:00 15.1 9 Sur 19 Sudeste 0 904.3 -2 26
2019-02-14 14:00:00 14.5 9 Sur 14 Sudeste 0 905 -1.6 28
2019-02-14 13:00:00 13.5 7 Sur 16 Sur 0 905.9 -0.5 33
2019-02-14 12:00:00 11.3 5 Sudeste 12 Sudeste 0 906.3 0 41
2019-02-14 11:00:00 8 3 Nordeste 7 Este 0 906.6 0.7 64
2019-02-14 10:00:00 3.4 3 Norte 6 Noroeste 0 906.4 0.7 73
2019-02-14 09:00:00 -1.5 0 Calma 6 Este 0 906.3 0.6 92
2019-02-14 08:00:00 -1.8 3 Sudeste 8 Nordeste 0 905.9 0.2 88
2019-02-14 07:00:00 -1 3 Norte 7 Norte 0 905.7 0 87
2019-02-14 06:00:00 -0.8 0 Calma 4 Norte 0 905.7 -0.3 86
2019-02-14 05:00:00 -0.9 0 Calma 6 Norte 0 905.7 -0.3 86
2019-02-14 04:00:00 -1.1 0 Calma 7 Este 0 905.7 -0.2 85
2019-02-14 03:00:00 -0.5 3 Este 4 Este 0 906 0.1 83
2019-02-14 02:00:00 0.3 2 Este 8 Este 0 906 0.2 79
2019-02-14 01:00:00 1.3 0 Calma 3 Nordeste 0 905.9 0.4 76
2019-02-14 00:00:00 2.2 3 Nordeste 6 Nordeste 0 905.9 0.8 73
2019-02-13 23:00:00 3.6 0 Calma 2 Este 0 905.8 1.1 75
2019-02-13 22:00:00 4.7 0 Calma 6 Norte 0 905.5 1.3 70
2019-02-13 21:00:00 6.7 2 Oeste 9 Este 0 905.1 1.1 65
2019-02-13 20:00:00 8.2 3 Este 9 Este 0 904.7 0.6 47
2019-02-13 19:00:00 10.9 3 Este 10 Sudeste 0 904.2 0.1 36
2019-02-13 18:00:00 14.4 5 Sudeste 12 Sudeste 0 904 -0.3 30
2019-02-13 17:00:00 16.1 6 Sur 19 Este 0 904.1 -0.7 31
2019-02-13 16:00:00 16 6 Sur 17 Sur 0 904.1 -1.2 28
2019-02-13 15:00:00 15.6 8 Sur 13 Sudeste 0 904.3 -1.2 32
2019-02-13 14:00:00 14.3 7 Sur 14 Sur 0 904.8 -0.4 33
2019-02-13 13:00:00 12.8 4 Sur 9 Norte 0 905.3 0.2 42
2019-02-13 12:00:00 10.6 3 Sur 8 Sudeste 0 905.5 0.7 48
2019-02-13 11:00:00 6.8 2 Noroeste 5 Noroeste 0 905.2 0.7 54
2019-02-13 10:00:00 2.8 2 Noroeste 5 Nordeste 0 905.1 0.6 71
2019-02-13 09:00:00 -1.7 2 Norte 4 Norte 0 904.8 0.2 87
2019-02-13 08:00:00 -2.6 0 Calma 3 Noroeste 0 904.5 -0.2 87
2019-02-13 07:00:00 -2.8 0 Calma 5 Noroeste 0 904.5 -0.2 86
2019-02-13 06:00:00 -2.6 2 Noroeste 5 Nordeste 0 904.6 -0.3 85
2019-02-13 05:00:00 -1.9 2 Norte 5 Noroeste 0 904.7 -0.3 80
2019-02-13 04:00:00 -1.5 3 Noroeste 5 Noroeste 0 904.7 -0.7 79
2019-02-13 03:00:00 -1.2 0 Calma 4 Norte 0 904.9 -0.6 77
2019-02-13 02:00:00 -0.9 0 Calma 6 Nordeste 0 905 -0.7 76
2019-02-13 01:00:00 -0.6 0 Calma 4 Este 0 905.4 -0.3 76
2019-02-13 00:00:00 0.6 3 Este 8 Nordeste 0 905.5 0 71
2019-02-12 23:00:00 1.6 2 Norte 8 Nordeste 0 905.7 0.4 67
2019-02-12 22:00:00 2.4 3 Sudeste 6 Este 0 905.7 0.8 68
2019-02-12 21:00:00 4.4 0 Calma 5 Norte 0 905.5 0.8 63
2019-02-12 20:00:00 6.6 0 Calma 4 Sudoeste 0 905.3 0.7 47
2019-02-12 19:00:00 8.4 0 Calma 7 Nordeste 0 904.9 0.2 38
2019-02-12 18:00:00 12.3 4 Sudeste 11 Sudoeste 0 904.7 -0.1 31
2019-02-12 17:00:00 13.4 6 Sur 13 Sur 0 904.6 -0.7 31
2019-02-12 16:00:00 13.3 6 Sudeste 13 Sur 0 904.7 -1.3 32
2019-02-12 15:00:00 12.5 8 Sur 17 Sur 0 904.8 -1.4 39
2019-02-12 14:00:00 11.9 9 Sur 15 Sur 0 905.3 -0.8 42
2019-02-12 13:00:00 10.4 6 Sudeste 14 Sudeste 0 906 -0.3 41
2019-02-12 12:00:00 8.6 5 Sudeste 12 Sudeste 0 906.2 -0.1 52
2019-02-12 11:00:00 5 4 Este 11 Este 0 906.1 0.4 69
2019-02-12 10:00:00 1 5 Nordeste 8 Noroeste 0 906.3 1 80
2019-02-12 09:00:00 -2.2 0 Calma 6 Este 0 906.3 1 90
2019-02-12 08:00:00 -2.5 4 Este 9 Sudeste 0 905.7 0.8 87
2019-02-12 07:00:00 -2.1 3 Oeste 7 Norte 0 905.3 -0.1 87
2019-02-12 06:00:00 -2.1 3 Noroeste 9 Sudoeste 0 905.3 0 87
2019-02-12 05:00:00 -1.2 4 Norte 8 Sudoeste 0 904.9 -0.8 86
2019-02-12 04:00:00 -0.8 3 Sudoeste 11 Sur 0 905.4 -0.2 85
2019-02-12 03:00:00 0.3 4 Este 12 Nordeste 0 905.3 -0.3 81
2019-02-12 02:00:00 0.7 0 Calma 11 Norte 0 905.7 0 80
2019-02-12 01:00:00 1.7 6 Norte 16 Nordeste 0 905.6 0.4 75
2019-02-12 00:00:00 1.6 6 Este 16 Nordeste 0 905.6 0.5 79
2019-02-11 23:00:00 2 7 Este 19 Nordeste 0 905.7 0.6 78
2019-02-11 22:00:00 2.2 7 Nordeste 19 Este 0 905.2 0.7 77
2019-02-11 21:00:00 2.8 6 Nordeste 21 Nordeste 0 905.1 1 75
2019-02-11 20:00:00 3.2 12 Norte 25 Norte 0 905.1 1.3 73
2019-02-11 19:00:00 3.8 14 Norte 30 Norte 0 904.5 0.7 72
2019-02-11 18:00:00 5.7 13 Norte 31 Nordeste 0 904.1 0.2 62
2019-02-11 17:00:00 7 17 Norte 32 Nordeste 0 903.8 -0.3 56
2019-02-11 16:00:00 8.1 16 Norte 35 Norte 0 903.8 -0.6 53
2019-02-11 15:00:00 8.9 9 Norte 33 Nordeste 0 903.9 -0.4 53
2019-02-11 14:00:00 7.8 15 Norte 32 Nordeste 0 904.1 0.3 55
2019-02-11 13:00:00 7.2 21 Nordeste 37 Nordeste 0 904.4 0.9 57
2019-02-11 12:00:00 7.4 8 Norte 20 Nordeste 0 904.3 1.7 59
2019-02-11 11:00:00 6.5 4 Oeste 8 Nordeste 0 903.8 1.6 60
2019-02-11 10:00:00 4 2 Noroeste 8 Sudoeste 0 903.5 1.8 71
2019-02-11 09:00:00 0.5 4 Norte 7 Norte 0 902.6 1.2 83
2019-02-11 08:00:00 -0.7 3 Nordeste 10 Norte 0 902.2 1.3 85
2019-02-11 07:00:00 0.4 6 Norte 11 Nordeste 0 901.7 1.4 78
2019-02-11 06:00:00 0.4 3 Noroeste 11 Nordeste 0 901.4 1.5 86
2019-02-11 05:00:00 0.9 9 Nordeste 17 Nordeste 0 900.9 1.3 86
2019-02-11 04:00:00 1 6 Este 10 Este 0 900.3 1.2 88
2019-02-11 03:00:00 1.7 3 Nordeste 10 Nordeste 0 899.9 1.4 87
2019-02-11 02:00:00 2.9 6 Norte 15 Nordeste 0 899.6 1.3 86
2019-02-11 01:00:00 2.5 6 Nordeste 17 Nordeste 0 899.1 1.3 88
2019-02-11 00:00:00 3.2 8 Norte 19 Norte 0 898.5 1.6 87
2019-02-10 23:00:00 4.4 5 Nordeste 15 Nordeste 0 898.3 1.6 84
2019-02-10 22:00:00 7.8 5 Noroeste 20 Oeste 0 897.8 1.5 89
2019-02-10 21:00:00 7.7 10 Oeste 31 Oeste 0 896.9 0.9 92
2019-02-10 20:00:00 7.9 15 Oeste 28 Oeste 0 896.7 0.8 93
2019-02-10 19:00:00 8 12 Oeste 30 Oeste 0.4 896.3 0.7 93
2019-02-10 18:00:00 8.1 12 Oeste 26 Oeste 0 896 0.5 94
2019-02-10 17:00:00 8.2 14 Oeste 31 Oeste 0 895.9 0.3 93
2019-02-10 16:00:00 9 19 Oeste 38 Oeste 0 895.6 -0.3 84
2019-02-10 15:00:00 8.5 21 Oeste 36 Oeste 0 895.5 -0.6 83
2019-02-10 14:00:00 7.7 21 Oeste 41 Oeste 0 895.6 -0.5 85
2019-02-10 13:00:00 7.5 22 Oeste 43 Oeste 0 895.9 0.3 81
2019-02-10 12:00:00 7.3 25 Oeste 50 Oeste 0 896.1 0.9 82
2019-02-10 11:00:00 6.3 8 Oeste 33 Oeste 0 896.1 1.2 82
2019-02-10 10:00:00 6 17 Oeste 32 Oeste 0 895.6 1 82
2019-02-10 09:00:00 4.8 20 Oeste 35 Oeste 0 895.2 0.4 85
2019-02-10 08:00:00 4.1 5 Oeste 17 Sudoeste 0 894.9 -0.2 85
2019-02-10 07:00:00 4 7 Sudoeste 23 Oeste 0 894.6 -0.7 85
2019-02-10 06:00:00 4.1 9 Sudoeste 20 Oeste 0 894.8 -0.7 85
2019-02-10 05:00:00 4.1 13 Oeste 26 Noroeste 0 895.1 -0.7 86
2019-02-10 04:00:00 3.7 14 Oeste 25 Oeste 0 895.3 -0.2 88
2019-02-10 03:00:00 3.6 13 Oeste 25 Oeste 0 895.5 -0.1 89
2019-02-10 02:00:00 4.2 17 Oeste 29 Oeste 0 895.8 0 85
2019-02-10 01:00:00 4.8 21 Oeste 37 Oeste 0 895.5 -0.3 83
2019-02-10 00:00:00 5.6 17 Oeste 28 Oeste 0 895.6 -0.3 78
2019-02-09 23:00:00 5.3 11 Oeste 21 Oeste 0 895.8 0.2 79
2019-02-09 22:00:00 5 9 Sudoeste 21 Oeste 0 895.8 0.5 78
2019-02-09 21:00:00 6.1 13 Oeste 23 Oeste 0 895.9 0.4 74
2019-02-09 20:00:00 7.3 8 Sudoeste 19 Sudoeste 0 895.6 -0.2 68
2019-02-09 19:00:00 9 10 Sudoeste 15 Oeste 0 895.3 -0.8 65
2019-02-09 18:00:00 10.9 9 Sudoeste 21 Oeste 0 895.5 -1.1 58
2019-02-09 17:00:00 11.4 12 Sudoeste 23 Sudoeste 0 895.8 -1.4 55
2019-02-09 16:00:00 12 10 Sudoeste 26 Oeste 0 896.1 -1.9 52
2019-02-09 15:00:00 11.9 15 Oeste 29 Oeste 0 896.6 -2 53
2019-02-09 14:00:00 10.8 11 Oeste 25 Oeste 0 897.2 -1 57
2019-02-09 13:00:00 9.3 15 Oeste 28 Sudoeste 0 898 -0.2 62
2019-02-09 12:00:00 7.6 16 Oeste 29 Oeste 0 898.6 0.7 69
2019-02-09 11:00:00 7.1 18 Oeste 26 Oeste 0 898.2 0.7 70
2019-02-09 10:00:00 6.4 9 Oeste 19 Oeste 0 898.2 0.8 78
2019-02-09 09:00:00 4.8 7 Oeste 18 Oeste 0 897.9 0.5 82
2019-02-09 08:00:00 4.9 8 Noroeste 22 Noroeste 0 897.5 -0.1 84
2019-02-09 07:00:00 4.9 8 Noroeste 24 Oeste 0 897.4 -0.4 85
2019-02-09 06:00:00 4.6 11 Oeste 27 Noroeste 0 897.4 -0.3 87
2019-02-09 05:00:00 4.6 11 Noroeste 30 Oeste 0 897.6 -0.4 87
2019-02-09 04:00:00 4.7 9 Oeste 32 Oeste 0 897.8 0.2 87
2019-02-09 03:00:00 4.5 17 Oeste 33 Oeste 0 897.7 0.1 86
2019-02-09 02:00:00 4.6 9 Noroeste 22 Noroeste 0 898 0.5 86
2019-02-09 01:00:00 4.5 9 Oeste 19 Oeste 0 897.6 0.5 84
2019-02-09 00:00:00 4.2 5 Oeste 12 Sudoeste 0 897.6 0.7 77
2019-02-08 23:00:00 4.7 6 Oeste 11 Oeste 0 897.5 0.9 72
2019-02-08 22:00:00 5.2 6 Sudoeste 11 Sudoeste 0 897.1 1.2 68
2019-02-08 21:00:00 6.2 5 Sudoeste 11 Oeste 0 896.9 1.2 64
2019-02-08 20:00:00 7.6 7 Oeste 12 Oeste 0 896.6 1 61
2019-02-08 19:00:00 9.2 6 Oeste 18 Oeste 0 895.9 0.2 55
2019-02-08 18:00:00 12.2 13 Oeste 24 Sudoeste 0 895.7 -0.3 44
2019-02-08 17:00:00 13.7 18 Oeste 27 Oeste 0 895.6 -1.1 41
2019-02-08 16:00:00 13.9 18 Oeste 34 Oeste 0 895.7 -1.7 34
2019-02-08 15:00:00 13.6 17 Oeste 30 Oeste 0 896 -1.6 35
2019-02-08 14:00:00 12.3 17 Oeste 30 Oeste 0 896.7 -1.2 43
2019-02-08 13:00:00 11.3 14 Oeste 24 Sudoeste 0 897.4 -0.6 54
2019-02-08 12:00:00 9.5 13 Sudoeste 20 Sudoeste 0 897.6 -0.2 67
2019-02-08 11:00:00 4.9 0 Calma 6 Sudeste 0 897.9 0.4 83
2019-02-08 10:00:00 -0.1 3 Sudeste 4 Este 0 898 0.5 94
2019-02-08 09:00:00 -4.3 3 Sudeste 4 Sudeste 0 897.8 0.3 93
2019-02-08 08:00:00 -4.5 2 Sudeste 4 Sudeste 0 897.5 -0.2 91
2019-02-08 07:00:00 -3.5 0 Calma 4 Sudeste 0 897.5 -0.8 88
2019-02-08 06:00:00 -2.2 2 Norte 3 Norte 0 897.5 -1.2 95
2019-02-08 05:00:00 -2.5 0 Calma 3 Norte 0 897.7 -1.2 95
2019-02-08 04:00:00 -2.6 0 Calma 8 Norte 0 898.3 -0.9 93
2019-02-08 03:00:00 -0.7 2 Norte 6 Noroeste 0 898.7 -0.7 92
2019-02-08 02:00:00 -0.1 0 Calma 3 Este 0 898.9 -0.5 93
2019-02-08 01:00:00 0.5 2 Sudeste 5 Norte 0 899.2 0.1 90
2019-02-08 00:00:00 2 0 Calma 6 Nordeste 0 899.4 0.3 92
2019-02-07 23:00:00 2.4 3 Norte 5 Nordeste 0 899.4 0.5 91
2019-02-07 22:00:00 3.3 4 Norte 8 Noroeste 0 899.1 0.5 89
2019-02-07 21:00:00 4.5 0 Calma 9 Norte 0 899.1 0.7 76
2019-02-07 20:00:00 6.1 3 Norte 13 Oeste 0 898.9 0.7 68
2019-02-07 19:00:00 7.8 8 Oeste 21 Noroeste 0 898.6 0.4 60
2019-02-07 18:00:00 10.1 9 Noroeste 27 Noroeste 0 898.4 0.4 52
2019-02-07 17:00:00 11.8 12 Oeste 26 Oeste 0 898.2 -0.2 50
2019-02-07 16:00:00 13 9 Norte 25 Oeste 0 898.2 -0.7 46
2019-02-07 15:00:00 13.1 8 Noroeste 31 Oeste 0 898 -1.6 46
2019-02-07 14:00:00 12.3 16 Oeste 32 Oeste 0 898.4 -1.2 48
2019-02-07 13:00:00 11.8 13 Oeste 23 Oeste 0 898.9 -0.4 52
2019-02-07 12:00:00 9.5 7 Oeste 16 Noroeste 0 899.6 0.8 59
2019-02-07 11:00:00 6.6 4 Oeste 8 Noroeste 0 899.6 1.4 63
2019-02-07 10:00:00 4.4 4 Noroeste 18 Oeste 0 899.3 1.2 71
2019-02-07 09:00:00 1.4 3 Sur 14 Oeste 0 898.8 1.1 84
2019-02-07 08:00:00 1.6 5 Oeste 13 Oeste 0 898.2 0.5 81
2019-02-07 07:00:00 2.8 9 Oeste 21 Oeste 0 898.1 -0.1 76
2019-02-07 06:00:00 4.1 12 Oeste 20 Oeste 0 897.7 -0.6 66
2019-02-07 05:00:00 5.2 9 Oeste 24 Oeste 0 897.7 -0.9 62
2019-02-07 04:00:00 6.8 12 Oeste 20 Oeste 0 898.2 -0.7 57
2019-02-07 03:00:00 7.3 11 Noroeste 24 Norte 0 898.3 -0.4 64
2019-02-07 02:00:00 6.9 10 Oeste 26 Noroeste 0 898.6 -0.1 68
2019-02-07 01:00:00 6.2 7 Noroeste 16 Norte 0 898.9 0.1 77
2019-02-07 00:00:00 5.7 7 Noroeste 13 Noroeste 0 898.7 0 81
2019-02-06 23:00:00 5.6 8 Oeste 16 Oeste 0 898.7 -0.3 78
2019-02-06 22:00:00 6.2 8 Oeste 15 Oeste 0 898.8 0 73
2019-02-06 21:00:00 7.5 8 Oeste 23 Oeste 0 898.7 0.2 67
2019-02-06 20:00:00 9 14 Oeste 23 Oeste 0 899 0.4 59
2019-02-06 19:00:00 10.2 4 Sudoeste 19 Oeste 0 898.8 0 59
2019-02-06 18:00:00 13.3 14 Oeste 26 Oeste 0 898.5 -0.7 45
2019-02-06 17:00:00 15.4 13 Oeste 24 Oeste 0 898.6 -1.4 39
2019-02-06 16:00:00 16.6 11 Oeste 21 Oeste 0 898.8 -2.1 41
2019-02-06 15:00:00 15.6 9 Sudoeste 20 Oeste 0 899.2 -2.4 47
2019-02-06 14:00:00 15 6 Sudoeste 15 Sudoeste 0 900 -1.8 53
2019-02-06 13:00:00 13 4 Sur 9 Sudeste 0 900.9 -1.1 57
2019-02-06 12:00:00 10.4 2 Sur 7 Sudeste 0 901.6 -0.2 67
2019-02-06 11:00:00 6.3 3 Norte 6 Sudoeste 0 901.8 0.3 76
2019-02-06 10:00:00 2.8 2 Sur 5 Sudeste 0 902 0.3 91
2019-02-06 09:00:00 -1.1 0 Calma 5 Norte 0 901.8 0.2 97
2019-02-06 08:00:00 -1.6 2 Norte 3 Noroeste 0 901.5 -0.4 95
2019-02-06 07:00:00 -1.2 0 Calma 4 Oeste 0 901.7 -0.7 95
2019-02-06 06:00:00 -0.9 3 Este 7 Nordeste 0 901.6 -1.1 93
2019-02-06 05:00:00 -0.1 0 Calma 9 Noroeste 0 901.9 -1.1 93
2019-02-06 04:00:00 0 3 Norte 6 Noroeste 0 902.4 -1 94
2019-02-06 03:00:00 0.8 4 Norte 9 Noroeste 0 902.7 -0.7 92
2019-02-06 02:00:00 1.1 3 Norte 8 Noroeste 0 903 -0.6 92
2019-02-06 01:00:00 2.3 4 Norte 11 Noroeste 0 903.4 -0.2 89
2019-02-06 00:00:00 2.6 3 Noroeste 6 Noroeste 0 903.4 -0.1 89
2019-02-05 23:00:00 3.6 0 Calma 7 Norte 0 903.6 0.2 84
2019-02-05 22:00:00 4.7 3 Noroeste 6 Noroeste 0 903.6 0.5 82
2019-02-05 21:00:00 5.8 2 Noroeste 7 Norte 0 903.5 0.8 78
2019-02-05 20:00:00 7.6 3 Norte 14 Norte 0 903.4 0.7 71
2019-02-05 19:00:00 9.8 4 Noroeste 12 Oeste 0 903.1 0.4 61
2019-02-05 18:00:00 13.2 7 Oeste 18 Sudoeste 0 902.7 -0.3 51
2019-02-05 17:00:00 15 9 Sudoeste 17 Oeste 0 902.7 -0.7 48
2019-02-05 16:00:00 15.5 4 Este 9 Sudeste 0 902.7 -1.1 46
2019-02-05 15:00:00 15.3 5 Sudeste 10 Sudeste 0 903 -1.4 46
2019-02-05 14:00:00 14.3 4 Sur 9 Sur 0 903.4 -1 47
2019-02-05 13:00:00 12.6 4 Oeste 10 Sudoeste 0 903.8 -0.2 52
2019-02-05 12:00:00 10.1 5 Oeste 9 Sudoeste 0 904.4 0.5 58
2019-02-05 11:00:00 7.4 3 Norte 11 Oeste 0 904.4 0.9 62
2019-02-05 10:00:00 4.2 3 Noroeste 11 Norte 0 904 0.9 74
2019-02-05 09:00:00 0.3 3 Noroeste 12 Noroeste 0 903.9 0.9 88
2019-02-05 08:00:00 -1.2 3 Nordeste 10 Oeste 0 903.5 0.7 87
2019-02-05 07:00:00 -1 4 Oeste 8 Oeste 0 903.1 -0.1 86
2019-02-05 06:00:00 -0.6 3 Este 6 Noroeste 0 903 -0.2 85
2019-02-05 05:00:00 -0.6 4 Noroeste 10 Oeste 0 902.8 -0.6 84
2019-02-05 04:00:00 -0.6 0 Calma 8 Este 0 903.2 -0.3 84
2019-02-05 03:00:00 -0.2 2 Noroeste 5 Nordeste 0 903.2 -0.3 82
2019-02-05 02:00:00 0.8 2 Sudeste 7 Noroeste 0 903.4 0.2 77
2019-02-05 01:00:00 1.3 4 Noroeste 9 Oeste 0 903.5 0.5 76
2019-02-05 00:00:00 0.7 0 Calma 11 Oeste 0 903.5 0.5 76
2019-02-04 23:00:00 1.5 5 Norte 11 Noroeste 0 903.2 0.5 74
2019-02-04 22:00:00 2.1 4 Oeste 8 Noroeste 0 903 0.4 69
2019-02-04 21:00:00 3 4 Noroeste 14 Oeste 0 903 0.8 64
2019-02-04 20:00:00 3.9 7 Oeste 12 Oeste 0 902.7 0.8 60
2019-02-04 19:00:00 4.8 7 Oeste 17 Oeste 0 902.6 0.7 60
2019-02-04 18:00:00 6.3 8 Oeste 20 Oeste 0 902.2 0.3 58
2019-02-04 17:00:00 8.3 10 Sudoeste 21 Oeste 0 901.9 -0.2 53
2019-02-04 16:00:00 8.8 11 Oeste 19 Oeste 0 901.9 -0.6 50
2019-02-04 15:00:00 9.8 9 Oeste 15 Sudoeste 0 901.9 -0.9 48
2019-02-04 14:00:00 9.4 9 Oeste 17 Noroeste 0 902.1 -0.9 52
2019-02-04 13:00:00 7 8 Norte 18 Nordeste 0 902.5 -0.5 54
2019-02-04 12:00:00 5.7 5 Noroeste 19 Noroeste 0 902.8 0.1 56
2019-02-04 11:00:00 1.8 9 Noroeste 17 Oeste 0 903 1 69
2019-02-04 10:00:00 -0.8 6 Noroeste 12 Noroeste 0 903 1.4 77
2019-02-04 09:00:00 -3.5 3 Noroeste 17 Oeste 0 902.7 0.6 84
2019-02-04 08:00:00 -4 4 Oeste 13 Sudoeste 0 902 0 83
2019-02-04 07:00:00 -4.2 3 Oeste 8 Oeste 0 901.6 -0.4 83
2019-02-04 06:00:00 -4.4 3 Noroeste 12 Norte 0 902.1 -0.9 84
2019-02-04 05:00:00 -3.7 8 Noroeste 16 Oeste 0 902 -0.2 83
2019-02-04 04:00:00 -4 6 Norte 16 Oeste 0 902 -0.5 87
2019-02-04 03:00:00 -3.6 8 Oeste 19 Oeste 0 903 0.7 84
2019-02-04 02:00:00 -3.3 3 Norte 8 Noroeste 0 902.2 -0.1 83
2019-02-04 01:00:00 -2.7 4 Noroeste 9 Sudoeste 0 902.5 0.5 81
2019-02-04 00:00:00 -2.4 3 Sur 9 Noroeste 0 902.3 0.7 81
2019-02-03 23:00:00 -1.6 0 Calma 10 Norte 0 902.3 1.3 78
2019-02-03 22:00:00 -1 4 Norte 14 Nordeste 0 902 1.2 76
2019-02-03 21:00:00 -1.1 4 Sur 30 Nordeste 0 901.6 1.7 78
2019-02-03 20:00:00 -0.1 15 Norte 28 Norte 0 901 1.5 71
2019-02-03 19:00:00 0.4 9 Norte 21 Nordeste 0 900.8 1.5 68
2019-02-03 18:00:00 1.8 4 Nordeste 33 Nordeste 0 899.9 1.3 64
2019-02-03 17:00:00 1.9 17 Norte 52 Nordeste 0 899.5 0.9 61
2019-02-03 16:00:00 4.3 12 Norte 36 Nordeste 0 899.3 0.8 57
2019-02-03 15:00:00 3.1 17 Norte 45 Nordeste 0 898.6 0.2 61
2019-02-03 14:00:00 3.8 13 Norte 40 Nordeste 0 898.6 0.7 63
2019-02-03 13:00:00 3.3 16 Norte 40 Nordeste 0 898.5 1 62
2019-02-03 12:00:00 3.1 14 Norte 38 Nordeste 0 898.4 1.7 62
2019-02-03 11:00:00 2.6 15 Norte 37 Norte 0 897.9 2 59
2019-02-03 10:00:00 0.6 10 Norte 31 Nordeste 0 897.5 2.3 65
2019-02-03 09:00:00 -1.3 17 Norte 44 Norte 0.2 896.7 1.7 74
2019-02-03 08:00:00 -1.9 10 Norte 33 Norte 0 895.9 1.3 74
2019-02-03 07:00:00 -2.3 10 Norte 28 Nordeste 0 895.2 0.9 75
2019-02-03 06:00:00 -2.8 9 Norte 29 Nordeste 0.2 895 0.7 90
2019-02-03 05:00:00 -2.6 10 Norte 30 Norte 0 894.6 1 75
2019-02-03 04:00:00 -3 8 Noroeste 26 Nordeste 0.6 894.3 2 90
2019-02-03 03:00:00 -2.5 10 Nordeste 35 Norte -- 894.3 2.5 90
2019-02-03 02:00:00 -1.4 11 Norte 28 Noroeste 0 893.6 2.1 83
2019-02-03 01:00:00 -1.8 9 Norte 34 Norte 0 892.3 1.2 79
2019-02-03 00:00:00 -1.6 10 Norte 26 Noroeste 0 891.8 1.3 77
2019-02-02 23:00:00 -1.8 7 Noroeste 16 Noroeste 0 891.5 1.8 91
2019-02-02 22:00:00 -1.4 5 Norte 24 Noroeste 0 891.1 1.7 86
2019-02-02 21:00:00 -1.4 10 Noroeste 28 Noroeste 0 890.5 2 87
2019-02-02 20:00:00 -1.3 11 Noroeste 30 Noroeste 0 889.7 1.6 81
2019-02-02 19:00:00 -0.7 11 Norte 28 Norte 0 889.4 2.4 74
2019-02-02 18:00:00 0.4 7 Oeste 26 Norte 0 888.5 2.4 68
2019-02-02 17:00:00 -0.2 9 Norte 30 Noroeste 0 888.1 2.5 82
2019-02-02 16:00:00 2.1 14 Norte 37 Norte 0 887 2.3 60
2019-02-02 15:00:00 2.2 16 Norte 45 Norte 0 886.1 2.3 57
2019-02-02 14:00:00 1.8 6 Norte 37 Nordeste 0 885.6 3.5 59
2019-02-02 13:00:00 3.4 12 Noroeste 40 Oeste 0 884.7 4 53
2019-02-02 12:00:00 1.7 10 Oeste 49 Noroeste 0 883.8 4.8 66
2019-02-02 11:00:00 1.8 14 Norte 37 Noroeste 0 882.1 4.3 62
2019-02-02 10:00:00 0.4 16 Oeste 37 Oeste 0.2 880.7 4.1 80
2019-02-02 09:00:00 0.2 18 Oeste 39 Noroeste 0 879 3 83
2019-02-02 08:00:00 0 23 Oeste 41 Oeste 0 877.8 3.1 85
2019-02-02 07:00:00 -0.1 16 Noroeste 32 Oeste 0 876.6 2.6 87
2019-02-02 06:00:00 -0.2 16 Noroeste 42 Oeste 0.2 876 2.5 91
2019-02-02 05:00:00 -0.1 17 Oeste 41 Oeste 0 874.7 2.4 90
2019-02-02 04:00:00 0.1 18 Oeste 36 Noroeste 0.4 874 2.8 92
2019-02-02 03:00:00 0.6 13 Noroeste 48 Noroeste 0.2 873.5 3.3 92
2019-02-02 02:00:00 0.6 17 Oeste 48 Oeste 0 872.3 2.7 90
2019-02-02 01:00:00 0.5 20 Oeste 41 Oeste 0 871.2 2 92
2019-02-02 00:00:00 0.7 15 Oeste 41 Oeste 0 870.2 1.5 92
2019-02-01 23:00:00 0.7 22 Oeste 36 Oeste 0 869.6 1.2 89
2019-02-01 22:00:00 0.6 16 Oeste 44 Oeste 0 869.2 1.3 90
2019-02-01 21:00:00 0.7 26 Oeste 50 Oeste 0 868.7 1.3 87
2019-02-01 20:00:00 1.3 18 Oeste 45 Oeste 0 868.4 1.6 82
2019-02-01 19:00:00 1.7 20 Oeste 45 Oeste 0 867.9 0.8 80
2019-02-01 18:00:00 2.3 18 Oeste 53 Oeste 0.2 867.4 0.2 78
2019-02-01 17:00:00 3 26 Oeste 46 Sudoeste 0 866.8 -1.4 73
2019-02-01 16:00:00 3 26 Oeste 55 Sudoeste 0 867.1 -2 84
2019-02-01 15:00:00 5.1 26 Oeste 55 Oeste 0 867.2 -3.1 75
2019-02-01 14:00:00 4 21 Oeste 41 Oeste 0.2 868.2 -2.4 80
2019-02-01 13:00:00 3.2 15 Sudoeste 32 Sudoeste 0 869.1 -1.7 83
2019-02-01 12:00:00 2.8 19 Oeste 36 Oeste 0.2 870.3 0.2 89
2019-02-01 11:00:00 1.6 7 Sudoeste 27 Oeste 1 870.6 0.8 95
2019-02-01 10:00:00 2.3 12 Oeste 42 Oeste 0.6 870.8 1.4 94
2019-02-01 09:00:00 3 18 Oeste 33 Oeste 0 870.1 0 85
2019-02-01 08:00:00 3.2 16 Oeste 40 Oeste 0 869.8 -0.2 87
2019-02-01 07:00:00 3.2 19 Oeste 41 Oeste 0 869.4 -1.6 85
2019-02-01 06:00:00 4 23 Oeste 42 Oeste 0 870.1 -1.5 86
2019-02-01 05:00:00 4.4 13 Oeste 31 Oeste 0 870 -2.3 90
2019-02-01 04:00:00 4.7 18 Oeste 44 Oeste 1.2 871 -1.3 89
2019-02-01 03:00:00 4.9 22 Oeste 45 Sudoeste 2.4 871.6 -0.9 93
2019-02-01 02:00:00 4.7 16 Noroeste 48 Oeste 4.2 872.3 -0.6 89
2019-02-01 01:00:00 7 19 Oeste 44 Oeste 4 872.3 -1.2 93
2019-02-01 00:00:00 6.9 14 Sudoeste 37 Oeste 3 872.5 -1.2 96
2019-01-31 23:00:00 7.3 15 Sudoeste 34 Sudoeste 0.8 872.9 -0.9 95
2019-01-31 22:00:00 7.7 16 Sudoeste 51 Sudoeste 0.6 873.5 -1 93
2019-01-31 21:00:00 8.3 36 Oeste 59 Oeste 0.2 873.7 -1.3 87
2019-01-31 20:00:00 8.9 27 Oeste 54 Oeste 0 873.8 -1.6 85
2019-01-31 19:00:00 8.9 22 Oeste 49 Oeste 0 874.5 -1.3 86
2019-01-31 18:00:00 9.5 24 Oeste 54 Oeste 0 875 -1.3 84
2019-01-31 17:00:00 9.6 27 Oeste 54 Oeste 0 875.4 -1.4 84
2019-01-31 16:00:00 9.4 18 Oeste 45 Oeste 0 875.8 -1.3 91
2019-01-31 15:00:00 9.4 26 Oeste 47 Oeste 0 876.3 -1.5 90
2019-01-31 14:00:00 8.4 26 Oeste 46 Oeste 0.4 876.8 -1 94
2019-01-31 13:00:00 7.3 17 Oeste 41 Oeste 0.2 877.1 -0.4 97
2019-01-31 12:00:00 6.7 15 Sudoeste 32 Sudoeste 0 877.8 0.7 97
2019-01-31 11:00:00 6.2 18 Oeste 41 Oeste 0.2 877.8 1.2 96
2019-01-31 10:00:00 6.4 26 Oeste 50 Oeste 0.8 877.5 1 95
2019-01-31 09:00:00 6.5 24 Oeste 48 Oeste 1 877.1 0.6 95
2019-01-31 08:00:00 6.9 21 Oeste 38 Oeste 1 876.6 -0.3 96
2019-01-31 07:00:00 7 22 Oeste 41 Oeste 0.6 876.5 -1.1 96
2019-01-31 06:00:00 6.3 19 Oeste 34 Oeste 0.4 876.5 -1.7 98
2019-01-31 05:00:00 5.2 10 Oeste 19 Oeste 0.4 876.9 -1.9 99
2019-01-31 04:00:00 3.4 6 Oeste 11 Oeste 0.6 877.6 -1.9 99
2019-01-31 03:00:00 2.2 5 Sudoeste 9 Sudoeste 0.8 878.2 -1.7 98
2019-01-31 02:00:00 1.3 3 Oeste 6 Oeste 1.2 878.8 -1.4 97
2019-01-31 01:00:00 1.1 0 Calma 11 Oeste 0.6 879.5 -1.8 97
2019-01-31 00:00:00 0.9 4 Oeste 15 Oeste 1 879.9 -2.4 96
2019-01-30 23:00:00 0.7 5 Sudoeste 12 Sudoeste 1.4 880.2 -2.9 96
2019-01-30 22:00:00 0.6 7 Sudoeste 15 Sudoeste 1.8 881.3 -2.2 96
2019-01-30 21:00:00 0.7 8 Sudoeste 17 Sudoeste 0.8 882.3 -1.7 95
2019-01-30 20:00:00 1.1 10 Oeste 26 Sudoeste 0 883.1 -1.2 93
2019-01-30 19:00:00 1.6 16 Oeste 27 Sudoeste 0 883.5 -1.2 87
2019-01-30 18:00:00 3.6 17 Oeste 40 Oeste 0 884 -1.2 69
2019-01-30 17:00:00 4.7 16 Oeste 42 Sudoeste 0 884.3 -1.2 58
2019-01-30 16:00:00 4.9 22 Oeste 40 Oeste 0 884.7 -1.9 53
2019-01-30 15:00:00 5.1 22 Oeste 41 Oeste 0 885.2 -2.5 53
2019-01-30 14:00:00 5.5 18 Oeste 41 Oeste 0 885.5 -1.9 54
2019-01-30 13:00:00 3.4 12 Noroeste 34 Oeste 0 886.6 -0.3 63
2019-01-30 12:00:00 3.7 14 Oeste 35 Oeste 0 887.7 1 68
2019-01-30 11:00:00 2.2 22 Oeste 35 Sudoeste 0 887.4 0.9 71
2019-01-30 10:00:00 1.3 13 Oeste 26 Sudoeste 0 886.9 0.4 79
2019-01-30 09:00:00 -0.5 14 Oeste 27 Oeste 0 886.7 0.2 86
2019-01-30 08:00:00 0.4 13 Oeste 31 Oeste 0 886.5 -0.2 77
2019-01-30 07:00:00 0.2 15 Oeste 36 Oeste 0 886.5 -0.4 82
2019-01-30 06:00:00 0.5 18 Oeste 34 Oeste 0 886.5 -0.4 81
2019-01-30 05:00:00 0.7 13 Oeste 32 Oeste 0 886.7 -0.2 81
2019-01-30 04:00:00 0.5 9 Noroeste 29 Oeste 0 886.9 -0.5 87
2019-01-30 03:00:00 1.1 12 Noroeste 34 Noroeste 0 886.9 -0.3 86
2019-01-30 02:00:00 1.5 13 Noroeste 33 Oeste 0 886.9 0.1 84
2019-01-30 01:00:00 1.1 17 Oeste 31 Oeste 0 887.4 0.9 90
2019-01-30 00:00:00 1.4 14 Oeste 27 Oeste 0 887.2 1.6 88
2019-01-29 23:00:00 2.2 17 Oeste 37 Oeste 0 886.8 1.9 80
2019-01-29 22:00:00 3.1 17 Oeste 46 Oeste 0 886.5 2.4 75
2019-01-29 21:00:00 3.9 18 Oeste 44 Oeste 0 885.6 1.9 76
2019-01-29 20:00:00 4.6 18 Noroeste 44 Oeste 0 884.9 1.3 83
2019-01-29 19:00:00 4.6 15 Noroeste 37 Noroeste 0 884.1 0 87
2019-01-29 18:00:00 3.8 12 Noroeste 36 Oeste -- 883.7 -0.8 92
2019-01-29 17:00:00 5.2 17 Oeste 44 Oeste 0.8 883.6 -1.7 92
2019-01-29 16:00:00 5.2 24 Oeste 55 Oeste 0 884.1 -2.8 91
2019-01-29 15:00:00 5.3 23 Oeste 50 Oeste 0 884.5 -3.7 89
2019-01-29 14:00:00 4 18 Oeste 39 Oeste 0 885.3 -3.9 94
2019-01-29 13:00:00 2.7 10 Noroeste 24 Noroeste 0 886.9 -2.4 95
2019-01-29 12:00:00 1.6 11 Oeste 29 Oeste 0 888.2 -1.1 96
2019-01-29 11:00:00 1.1 6 Oeste 30 Sudoeste 0 889.2 -0.1 92
2019-01-29 10:00:00 0.8 15 Oeste 34 Sudoeste 0 889.3 -1 90
2019-01-29 09:00:00 0.3 10 Sudoeste 34 Oeste 0 889.3 -1.2 89
2019-01-29 08:00:00 -0.1 21 Oeste 33 Oeste 0 889.3 -1.6 89
2019-01-29 07:00:00 -0.6 24 Oeste 35 Sudoeste 0 890.3 -0.5 87
2019-01-29 06:00:00 -0.2 14 Oeste 27 Oeste 0 890.5 -0.9 83
2019-01-29 05:00:00 0.5 5 Noroeste 23 Oeste 0 890.9 -0.9 78
2019-01-29 04:00:00 1.7 10 Noroeste 21 Oeste 0 890.8 -1.4 74
2019-01-29 03:00:00 2.2 13 Oeste 23 Oeste 0 891.4 -0.9 71
2019-01-29 02:00:00 2.8 8 Oeste 21 Sudoeste 0 891.8 -0.6 67
2019-01-29 01:00:00 3.5 8 Noroeste 22 Oeste 0 892.2 -0.1 64
2019-01-29 00:00:00 3.9 8 Oeste 15 Oeste 0 892.3 0 61
2019-01-28 23:00:00 4.1 6 Norte 23 Noroeste 0 892.4 0.7 60
2019-01-28 22:00:00 4.3 11 Oeste 29 Oeste 0 892.3 0.9 57
2019-01-28 21:00:00 4.6 8 Noroeste 22 Oeste 0 892.3 1.3 57
2019-01-28 20:00:00 5.6 13 Noroeste 37 Noroeste 0 891.7 0.9 54
2019-01-28 19:00:00 5.9 11 Noroeste 29 Norte 0 891.4 0.9 55
2019-01-28 18:00:00 6.7 11 Noroeste 34 Noroeste 0 891 0.8 53
2019-01-28 17:00:00 7.4 14 Norte 35 Norte 0 890.8 0.6 52
2019-01-28 16:00:00 8.8 13 Norte 33 Noroeste 0 890.5 0 53
2019-01-28 15:00:00 6.9 11 Noroeste 47 Oeste 0 890.2 -0.6 66
2019-01-28 14:00:00 4.7 18 Oeste 44 Oeste 0 890.2 0.1 81
2019-01-28 13:00:00 3.3 14 Noroeste 45 Noroeste 0 890.5 0.9 87
2019-01-28 12:00:00 2.9 24 Oeste 49 Oeste 0 890.8 1.1 85
2019-01-28 11:00:00 2.4 27 Oeste 55 Oeste 0 890.1 0.5 85
2019-01-28 10:00:00 1.8 25 Noroeste 64 Oeste 0 889.6 -0.1 86
2019-01-28 09:00:00 1.1 23 Oeste 54 Oeste 0 889.7 -0.3 88
2019-01-28 08:00:00 0.9 22 Noroeste 51 Oeste 0 889.6 -1.3 86
2019-01-28 07:00:00 0.6 28 Oeste 60 Oeste 0 889.7 -1.7 85
2019-01-28 06:00:00 0.4 23 Noroeste 47 Oeste 0 890 -1.8 81
2019-01-28 05:00:00 0.6 15 Noroeste 36 Noroeste 0 890.9 -0.6 74
2019-01-28 04:00:00 1.1 15 Oeste 29 Oeste 0 891.4 -0.5 70
2019-01-28 03:00:00 1.6 13 Noroeste 32 Oeste 0 891.8 -0.2 68
2019-01-28 02:00:00 1.5 13 Oeste 37 Noroeste 0 891.5 -0.3 70
2019-01-28 01:00:00 0.8 10 Sudoeste 25 Oeste 0 891.9 0 73
2019-01-28 00:00:00 2 9 Oeste 27 Oeste 0 892 0.3 64
2019-01-27 23:00:00 2.8 9 Oeste 21 Noroeste 0 891.8 0.1 57
2019-01-27 22:00:00 2.7 10 Noroeste 25 Noroeste 0 891.9 0.2 56
2019-01-27 21:00:00 3.3 13 Noroeste 29 Noroeste 0 891.7 0.9 55
2019-01-27 20:00:00 3.6 10 Norte 32 Noroeste 0 891.7 1.1 53
2019-01-27 19:00:00 3.7 10 Norte 27 Norte 0 891.7 1.8 50
2019-01-27 18:00:00 4.9 9 Norte 41 Norte 0 890.8 1.1 53
2019-01-27 17:00:00 5.8 13 Norte 41 Noroeste 0 890.6 1.2 51
2019-01-27 16:00:00 6.2 16 Norte 39 Oeste 0 889.9 0 48
2019-01-27 15:00:00 6.3 12 Noroeste 40 Oeste 0 889.7 -0.2 60
2019-01-27 14:00:00 6.7 14 Noroeste 41 Oeste 0 889.4 0.2 58
2019-01-27 13:00:00 7.3 13 Oeste 31 Oeste 0 889.9 0.9 54
2019-01-27 12:00:00 6.4 21 Oeste 35 Oeste 0 889.9 1.5 66
2019-01-27 11:00:00 5.4 13 Oeste 25 Oeste 0 889.2 1.3 68
2019-01-27 10:00:00 3.5 8 Norte 33 Oeste 0 889 0.6 84
2019-01-27 09:00:00 3.1 17 Oeste 32 Noroeste 0 888.4 -0.2 86
2019-01-27 08:00:00 3.1 14 Oeste 31 Oeste 0 887.9 -0.9 87
2019-01-27 07:00:00 2.6 12 Sudoeste 21 Sudoeste 0 888.4 -1.1 90
2019-01-27 06:00:00 2.7 11 Oeste 31 Oeste 0 888.6 -1.5 89
2019-01-27 05:00:00 2.4 15 Oeste 32 Oeste 0 888.8 -1.7 88
2019-01-27 04:00:00 3.3 16 Oeste 30 Oeste 0 889.5 -1.2 85
2019-01-27 03:00:00 4.2 16 Oeste 30 Oeste 0 890.1 -1.2 82
2019-01-27 02:00:00 4.9 9 Oeste 28 Oeste 0 890.5 -1.1 77
2019-01-27 01:00:00 5.8 12 Oeste 29 Oeste 0 890.7 -1.2 73
2019-01-27 00:00:00 6.2 12 Oeste 26 Oeste 0 891.3 -1 68
2019-01-26 23:00:00 6.1 10 Noroeste 23 Oeste 0 891.6 -1 66
2019-01-26 22:00:00 6.8 12 Oeste 33 Oeste 0 891.9 -0.7 64
2019-01-26 21:00:00 7.1 15 Oeste 31 Oeste 0 892.3 -0.5 53
2019-01-26 20:00:00 6 13 Oeste 26 Oeste 0 892.6 -0.6 72
2019-01-26 19:00:00 7 13 Oeste 27 Oeste 0 892.6 -1.1 61
2019-01-26 18:00:00 9.7 10 Sudoeste 19 Sudoeste 0 892.8 -1.3 55
2019-01-26 17:00:00 13.4 11 Oeste 23 Oeste 0 893.2 -1.5 46
2019-01-26 16:00:00 13.9 13 Oeste 22 Sudoeste 0 893.7 -1.8 48
2019-01-26 15:00:00 13.8 12 Oeste 21 Sudoeste 0 894.1 -2.3 50
2019-01-26 14:00:00 13.1 6 Oeste 15 Oeste 0 894.7 -1.9 52
2019-01-26 13:00:00 10.3 7 Sudoeste 13 Oeste 0 895.5 -1 60
2019-01-26 12:00:00 7.4 6 Oeste 14 Oeste 0 896.4 -0.2 66
2019-01-26 11:00:00 4.6 4 Norte 10 Nordeste 0 896.6 0 75
2019-01-26 10:00:00 1.6 2 Noroeste 6 Oeste 0 896.5 -0.2 87
2019-01-26 09:00:00 -2.3 2 Noroeste 8 Noroeste 0 896.6 -0.2 94
2019-01-26 08:00:00 -2.2 2 Norte 9 Noroeste 0 896.6 -0.4 95
2019-01-26 07:00:00 -2.2 2 Noroeste 5 Noroeste 0 896.7 -0.4 92
2019-01-26 06:00:00 -1.8 2 Oeste 5 Sudoeste 0 896.8 -0.5 93
2019-01-26 05:00:00 -1.3 2 Sudoeste 9 Oeste 0 897 -0.1 91
2019-01-26 04:00:00 -0.5 0 Calma 9 Sur 0 897.1 -0.2 91
2019-01-26 03:00:00 -0.1 2 Noroeste 11 Sudoeste 0 897.3 0 88
2019-01-26 02:00:00 1.1 3 Norte 9 Sur 0 897.1 -0.3 88
2019-01-26 01:00:00 1.4 3 Noroeste 10 Norte 0 897.3 0.2 85
2019-01-26 00:00:00 1.9 4 Norte 9 Norte 0 897.3 0.1 85
2019-01-25 23:00:00 2.2 3 Noroeste 6 Sudoeste 0 897.4 0.6 85
2019-01-25 22:00:00 3.2 3 Noroeste 7 Norte 0 897.1 0.6 82
2019-01-25 21:00:00 4.3 3 Noroeste 13 Norte 0 897.2 1.5 78
2019-01-25 20:00:00 4.7 4 Norte 16 Norte 0 896.8 1.6 77
2019-01-25 19:00:00 5.6 12 Nordeste 17 Este 0 896.5 1.8 74
2019-01-25 18:00:00 7.4 5 Norte 24 Norte 0 895.7 1 65
2019-01-25 17:00:00 9.6 9 Norte 29 Norte 0 895.2 -0.1 56
2019-01-25 16:00:00 10.7 15 Norte 28 Norte 0 894.7 -0.5 50
2019-01-25 15:00:00 9.9 13 Nordeste 27 Nordeste 0 894.7 0 59
2019-01-25 14:00:00 11.3 9 Norte 25 Nordeste 0 895.3 1 53
2019-01-25 13:00:00 9.4 8 Norte 30 Noroeste 0 895.2 1.6 62
2019-01-25 12:00:00 10.5 10 Noroeste 34 Nordeste 0 894.7 1.5 59
2019-01-25 11:00:00 8.6 11 Norte 31 Este 0 894.3 1.5 67
2019-01-25 10:00:00 7.3 15 Noroeste 29 Norte 0 893.6 1.5 70
2019-01-25 09:00:00 6.5 10 Norte 26 Norte 0 893.2 1.4 75
2019-01-25 08:00:00 6.2 8 Norte 35 Norte 0 892.8 1.2 76
2019-01-25 07:00:00 6.3 12 Norte 33 Nordeste 0 892.1 0.5 74
2019-01-25 06:00:00 6.1 11 Noroeste 40 Nordeste 0 891.8 0.6 76
2019-01-25 05:00:00 6.5 10 Norte 44 Norte 0 891.6 0.4 73
2019-01-25 04:00:00 6.4 8 Norte 26 Norte 0 891.6 0.6 77
2019-01-25 03:00:00 6 9 Norte 28 Norte 0 891.2 0.3 79
2019-01-25 02:00:00 5.6 10 Norte 31 Noroeste 0 891.2 0.3 80
2019-01-25 01:00:00 5.9 12 Norte 30 Noroeste 0 891 0.9 79
2019-01-25 00:00:00 5.9 12 Norte 27 Norte 0 890.9 1 80
2019-01-24 23:00:00 6.1 10 Norte 25 Nordeste 0 890.9 1.3 79
2019-01-24 22:00:00 5.9 14 Norte 33 Norte 0 890.1 0.8 80
2019-01-24 21:00:00 5.8 9 Norte 30 Norte 0 889.9 1.2 79
2019-01-24 20:00:00 5.9 11 Norte 32 Noroeste 0 889.6 1.1 77
2019-01-24 19:00:00 5.6 12 Nordeste 23 Nordeste 0 889.3 1.3 78
2019-01-24 18:00:00 5.9 4 Este 34 Noroeste 0 888.7 1 78
2019-01-24 17:00:00 6.3 6 Oeste 26 Norte 0 888.5 0.4 76
2019-01-24 16:00:00 6.6 9 Norte 41 Norte 0 888 0 73
2019-01-24 15:00:00 6.8 11 Norte 29 Noroeste 0 887.7 -0.6 71
2019-01-24 14:00:00 6 9 Norte 26 Nordeste 0 888.1 0.5 75
2019-01-24 13:00:00 5.4 9 Norte 28 Noroeste 0 888 1.2 74
2019-01-24 12:00:00 4.6 8 Noroeste 25 Norte 0 888.3 2 80
2019-01-24 11:00:00 3.6 8 Norte 21 Noroeste 0.2 887.6 2.2 85
2019-01-24 10:00:00 2.9 5 Norte 15 Nordeste 0 886.8 1.7 91
2019-01-24 09:00:00 2.8 7 Norte 17 Nordeste 0 886.3 1.5 90
2019-01-24 08:00:00 2.4 4 Norte 12 Norte 0 885.4 1.1 91
2019-01-24 07:00:00 2.5 5 Norte 12 Norte 0 885.1 1.1 91
2019-01-24 06:00:00 3 3 Norte 10 Oeste 0 884.8 0.7 92
2019-01-24 05:00:00 3 2 Norte 14 Oeste 0 884.3 0.5 93
2019-01-24 04:00:00 3.3 6 Noroeste 16 Noroeste 0.2 884 0.3 92
2019-01-24 03:00:00 3.4 8 Norte 17 Nordeste 0 884.1 0.5 92
2019-01-24 02:00:00 3.3 5 Noroeste 18 Oeste 0 883.8 0.1 92
2019-01-24 01:00:00 3.5 7 Oeste 18 Norte 0.2 883.7 0.7 91
2019-01-24 00:00:00 3.9 10 Noroeste 30 Norte 0.2 883.6 1.1 90
2019-01-23 23:00:00 4.2 8 Noroeste 25 Norte 0.4 883.7 1.1 90
2019-01-23 22:00:00 4.5 12 Noroeste 33 Norte 0.4 883 1.1 91
2019-01-23 21:00:00 4.8 12 Noroeste 31 Noroeste 0 882.5 0.3 87
2019-01-23 20:00:00 4.9 14 Noroeste 34 Noroeste 0 882.6 0.5 86
2019-01-23 19:00:00 4.9 13 Noroeste 34 Oeste 0 881.9 -0.1 84
2019-01-23 18:00:00 6.2 12 Noroeste 31 Norte 0 882.2 0.3 78
2019-01-23 17:00:00 7.3 15 Noroeste 37 Noroeste 0 882.1 0.2 77
2019-01-23 16:00:00 7.6 11 Norte 34 Nordeste 0 882 -0.2 75
2019-01-23 15:00:00 8 15 Noroeste 42 Noroeste 0 881.9 -0.6 76
2019-01-23 14:00:00 8 15 Norte 42 Norte 0 881.9 0.1 73
2019-01-23 13:00:00 7.1 15 Noroeste 41 Oeste 0 882.2 0.4 76
2019-01-23 12:00:00 6.2 18 Noroeste 40 Noroeste 0 882.5 1 81
2019-01-23 11:00:00 4.6 19 Noroeste 47 Oeste 0 881.8 0.3 86
2019-01-23 10:00:00 2.7 18 Noroeste 40 Norte 0 881.8 0 91
2019-01-23 09:00:00 2.1 18 Noroeste 40 Noroeste 0 881.5 -0.8 91
2019-01-23 08:00:00 2.2 20 Noroeste 50 Oeste 0 881.5 -1.7 90
2019-01-23 07:00:00 2.2 19 Oeste 39 Oeste 0 881.8 -2 90
2019-01-23 06:00:00 1.9 21 Oeste 40 Oeste 0 882.3 -2 92
2019-01-23 05:00:00 1.6 14 Oeste 32 Oeste 0 883.2 -1.4 91
2019-01-23 04:00:00 2 18 Oeste 32 Oeste 0 883.8 -1.5 87
2019-01-23 03:00:00 2 15 Oeste 36 Oeste 0 884.3 -1.3 87
2019-01-23 02:00:00 1.4 13 Oeste 27 Oeste 0 884.6 -1.2 91
2019-01-23 01:00:00 1.6 13 Oeste 23 Oeste 0 885.3 -0.9 89
2019-01-23 00:00:00 1.6 12 Oeste 30 Oeste 0 885.6 -0.9 89
2019-01-22 23:00:00 1.6 15 Oeste 29 Noroeste 0 885.8 -1.5 88
2019-01-22 22:00:00 1.6 16 Oeste 30 Noroeste 0 886.2 -1.1 87
2019-01-22 21:00:00 1 14 Oeste 26 Oeste 0 886.5 -1.2 92
2019-01-22 20:00:00 0.9 12 Oeste 22 Oeste 0 887.3 -0.4 91
2019-01-22 19:00:00 1.6 11 Oeste 22 Oeste 0 887.3 -0.3 84
2019-01-22 18:00:00 1.7 10 Oeste 23 Oeste 0 887.7 -0.7 88
2019-01-22 17:00:00 2.3 10 Noroeste 33 Oeste 0 887.7 -1.1 82
2019-01-22 16:00:00 2 14 Noroeste 30 Oeste 0 887.6 -2 81
2019-01-22 15:00:00 0.8 18 Oeste 42 Oeste 0 888.4 -2.2 89
2019-01-22 14:00:00 1.7 23 Oeste 36 Oeste 0 888.8 -2.4 81
2019-01-22 13:00:00 2.6 17 Oeste 43 Oeste 0 889.6 -1.4 74
2019-01-22 12:00:00 1.8 15 Oeste 32 Oeste 0 890.6 -0.7 75
2019-01-22 11:00:00 1.5 13 Oeste 31 Oeste 0 891.2 -0.5 73
2019-01-22 10:00:00 0.5 14 Oeste 27 Oeste 0 891 -0.9 77
2019-01-22 09:00:00 0 13 Oeste 24 Oeste 0 891.3 -0.9 78
2019-01-22 08:00:00 -0.4 12 Oeste 22 Oeste 0 891.7 -0.9 81
2019-01-22 07:00:00 -1.3 14 Oeste 22 Oeste 0 891.9 -1.5 81
2019-01-22 06:00:00 -1 5 Sur 12 Sudoeste 0 892.2 -1.8 78
2019-01-22 05:00:00 -1.1 5 Oeste 9 Oeste 0 892.6 -1.7 77
2019-01-22 04:00:00 -1.2 5 Sudoeste 10 Sudoeste 0 893.4 -1.8 77
2019-01-22 03:00:00 -1.3 3 Nordeste 5 Noroeste 0 894 -1.5 75
2019-01-22 02:00:00 -1.3 4 Sudoeste 8 Sudoeste 0 894.3 -1.3 75
2019-01-22 01:00:00 -1.1 0 Calma 6 Oeste 0 895.2 -1.2 73
2019-01-22 00:00:00 0.2 3 Oeste 19 Nordeste 0 895.5 -0.5 67
2019-01-21 23:00:00 0.5 7 Norte 22 Noroeste 0 895.6 -0.4 67
2019-01-21 22:00:00 0.5 5 Noroeste 15 Oeste 0 896.4 0.9 67
2019-01-21 21:00:00 0.4 6 Noroeste 23 Noroeste 0 896 0.4 66
2019-01-21 20:00:00 0.6 7 Norte 25 Norte 0 896 0.7 69
2019-01-21 19:00:00 1.2 12 Norte 28 Nordeste 0 895.5 0.3 65
2019-01-21 18:00:00 2.4 6 Norte 18 Noroeste 0 895.6 0.5 59
2019-01-21 17:00:00 2.6 10 Noroeste 29 Norte 0 895.3 -0.3 59
2019-01-21 16:00:00 5.9 9 Norte 27 Norte 0 895.2 -1 49
2019-01-21 15:00:00 6.6 7 Norte 23 Norte 0 895.1 -0.7 50
2019-01-21 14:00:00 5.8 8 Norte 25 Nordeste 0 895.6 0.5 58
2019-01-21 13:00:00 4.9 10 Norte 26 Noroeste 0 896.2 1.1 57
2019-01-21 12:00:00 5.9 9 Norte 29 Norte 0 895.8 1.1 61
2019-01-21 11:00:00 4.4 13 Norte 30 Nordeste 0 895.1 1 63
2019-01-21 10:00:00 3.1 3 Norte 16 Norte 0 895.1 1.3 70
2019-01-21 09:00:00 1.5 6 Noroeste 17 Norte 0 894.7 1.5 79
2019-01-21 08:00:00 0.7 3 Norte 15 Nordeste 0 894.1 0.8 82
2019-01-21 07:00:00 0.3 4 Norte 19 Noroeste 0 893.8 0.2 83
2019-01-21 06:00:00 0.4 6 Norte 22 Norte 0 893.2 -0.3 83
2019-01-21 05:00:00 -0.9 4 Noroeste 10 Oeste 0 893.3 0 88
2019-01-21 04:00:00 -0.3 3 Oeste 13 Sudoeste 0 893.6 0.3 87
2019-01-21 03:00:00 1.1 5 Noroeste 14 Oeste 0 893.5 0.4 83
2019-01-21 02:00:00 1 3 Oeste 14 Norte 0 893.3 0.6 84
2019-01-21 01:00:00 0.6 2 Noroeste 21 Noroeste 0 893.3 0.9 84
2019-01-21 00:00:00 1.2 6 Norte 13 Noroeste 0 893.1 1.1 83
2019-01-20 23:00:00 1.6 3 Norte 14 Nordeste 0 892.7 0.9 79
2019-01-20 22:00:00 2 5 Norte 17 Norte 0 892.4 1 78
2019-01-20 21:00:00 2.1 9 Norte 22 Nordeste 0 892 1.1 77
2019-01-20 20:00:00 1.8 7 Norte 14 Norte 0 891.8 1.5 83
2019-01-20 19:00:00 2.4 4 Norte 17 Nordeste 0 891.4 1.6 86
2019-01-20 18:00:00 4.2 6 Norte 19 Norte 0 890.9 1.4 76
2019-01-20 17:00:00 5.2 9 Norte 30 Nordeste 0 890.3 0.8 70
2019-01-20 16:00:00 6.9 10 Norte 26 Nordeste 0 889.8 0.2 65
2019-01-20 15:00:00 5.6 11 Nordeste 23 Noroeste 0 889.5 -0.1 71
2019-01-20 14:00:00 7.6 6 Norte 19 Norte 0 889.5 0.5 65
2019-01-20 13:00:00 6.7 5 Norte 12 Oeste 0 889.6 1.6 70
2019-01-20 12:00:00 5.3 2 Norte 15 Noroeste 0 889.6 2.5 74
2019-01-20 11:00:00 4.9 8 Nordeste 24 Norte 0 889 2.4 72
2019-01-20 10:00:00 2.5 7 Norte 19 Norte 0 888 2.2 80
2019-01-20 09:00:00 2.1 9 Norte 21 Norte 0 887.1 1.9 87
2019-01-20 08:00:00 1.5 5 Norte 19 Norte 0 886.6 1.7 89
2019-01-20 07:00:00 1.7 8 Norte 25 Norte 0 885.8 1.1 88
2019-01-20 06:00:00 1 5 Nordeste 14 Nordeste 0 885.2 0.8 94
2019-01-20 05:00:00 0.4 0 Calma 7 Nordeste 0 884.9 0.8 98
2019-01-20 04:00:00 0.3 5 Nordeste 7 Nordeste 0.2 884.7 0.4 98
2019-01-20 03:00:00 0.4 5 Nordeste 6 Nordeste 0 884.4 0 97
2019-01-20 02:00:00 0.6 0 Calma 4 Sur 0.4 884.1 -0.5 97
2019-01-20 01:00:00 0.5 3 Sudoeste 8 Sudoeste 0.2 884.3 -0.6 97
2019-01-20 00:00:00 0.5 4 Sudoeste 8 Sudoeste 0.8 884.4 -0.8 97
2019-01-19 23:00:00 0.5 5 Sudoeste 10 Sudoeste 1.2 884.6 -1 97
2019-01-19 22:00:00 0.5 3 Sudoeste 8 Oeste 1.4 884.9 -1 97
2019-01-19 21:00:00 0.5 5 Sudoeste 11 Sudoeste 1.2 885.2 -1.2 96
2019-01-19 20:00:00 0.5 8 Sudoeste 15 Sudoeste 1.2 885.6 -1.1 96
2019-01-19 19:00:00 0.6 9 Sudoeste 17 Sudoeste 0.6 885.9 -1.3 96
2019-01-19 18:00:00 0.9 7 Sudoeste 14 Sudoeste 0.8 886.4 -1.4 94
2019-01-19 17:00:00 1.9 8 Sudoeste 18 Sur 0.6 886.7 -2.2 92
2019-01-19 16:00:00 3 10 Sudoeste 19 Sudoeste 0 887.2 -3.1 89
2019-01-19 15:00:00 3.5 9 Sudoeste 19 Sudoeste 0 887.8 -3.4 86
2019-01-19 14:00:00 3.7 13 Sudoeste 21 Sudoeste 0 888.9 -2.1 81
2019-01-19 13:00:00 2.1 10 Sudoeste 18 Sudoeste 0 890.3 -0.7 89
2019-01-19 12:00:00 2 10 Oeste 20 Oeste 0 891.2 0.2 87
2019-01-19 11:00:00 2.5 7 Sudoeste 13 Sudoeste 0 891 0 84
2019-01-19 10:00:00 1.4 6 Sudoeste 17 Oeste 0 891 -0.1 87
2019-01-19 09:00:00 0.7 7 Sudoeste 15 Oeste 0 891 -0.1 88
2019-01-19 08:00:00 0.5 7 Noroeste 18 Oeste 0 891 -0.3 90
2019-01-19 07:00:00 0.4 11 Oeste 24 Oeste 0 891.1 -0.5 90
2019-01-19 06:00:00 0.2 12 Noroeste 30 Noroeste 0 891.1 -0.7 89
2019-01-19 05:00:00 -0.2 10 Oeste 25 Sudoeste 0 891.3 -0.4 92
2019-01-19 04:00:00 -0.2 14 Oeste 25 Oeste 0 891.6 -0.6 90
2019-01-19 03:00:00 -0.2 10 Oeste 21 Oeste 0 891.8 -0.4 89
2019-01-19 02:00:00 0.1 10 Oeste 24 Noroeste 0 891.7 -0.5 87
2019-01-19 01:00:00 0.3 13 Oeste 24 Oeste 0 892.2 0.4 87
2019-01-19 00:00:00 0.5 12 Oeste 27 Oeste 0 892.2 0.4 87